Time;durP1;ratioP1;P1;durP2;ratioP2;P2;SDS_P1;SDS_P2;PMS_P1;PMS_P2;Temp;Humidity;BMP_temperature;BMP_pressure;BME280_temperature;BME280_humidity;BME280_pressure;Samples;Min_cycle;Max_cycle;Signal;HPM_P1;HPM_P2
2021/08/22 00:01:37;;;;;;;3.73;3.43;;;18.70;99.90;;;;;;4909257;29;20197;-75
2021/08/22 00:04:05;;;;;;;3.80;3.50;;;18.70;99.90;;;;;;4909110;29;20193;-78
2021/08/22 00:06:30;;;;;;;3.30;3.00;;;18.70;99.90;;;;;;4912227;28;20236;-77
2021/08/22 00:08:56;;;;;;;3.10;2.90;;;18.70;99.90;;;;;;4914904;29;20624;-79
2021/08/22 00:11:23;;;;;;;3.80;3.50;;;18.70;99.90;;;;;;4916550;29;20548;-76
2021/08/22 00:13:49;;;;;;;3.80;3.50;;;18.60;99.90;;;;;;4912726;29;20192;-77
2021/08/22 00:16:15;;;;;;;4.13;3.80;;;18.60;99.90;;;;;;4904960;28;20685;-78
2021/08/22 00:18:45;;;;;;;3.70;3.40;;;18.60;99.90;;;;;;4910872;29;20308;-76
2021/08/22 00:21:11;;;;;;;4.50;3.23;;;18.60;99.90;;;;;;4915049;29;20223;-80
2021/08/22 00:23:38;;;;;;;3.80;3.50;;;18.60;99.90;;;;;;4912800;29;20636;-77
2021/08/22 00:26:06;;;;;;;3.97;3.53;;;18.60;99.90;;;;;;4916526;28;20229;-77
2021/08/22 00:28:34;;;;;;;3.57;3.27;;;18.50;99.90;;;;;;4912013;29;21223;-78
2021/08/22 00:31:00;;;;;;;3.53;3.23;;;18.60;99.90;;;;;;4914438;29;20655;-77
2021/08/22 00:33:25;;;;;;;3.93;3.70;;;18.60;99.90;;;;;;4916212;29;21045;-78
2021/08/22 00:35:57;;;;;;;4.13;3.83;;;18.60;99.90;;;;;;4913520;28;20643;-77
2021/08/22 00:38:32;;;;;;;3.67;3.30;;;18.60;99.90;;;;;;4911507;29;20212;-77
2021/08/22 00:40:59;;;;;;;3.90;3.50;;;18.60;99.90;;;;;;4912495;29;21078;-77
2021/08/22 00:43:24;;;;;;;3.63;3.33;;;18.60;99.90;;;;;;4910588;29;20724;-78
2021/08/22 00:45:50;;;;;;;3.37;3.03;;;18.60;99.90;;;;;;4917596;29;20640;-78
2021/08/22 00:48:15;;;;;;;3.70;3.40;;;18.50;99.90;;;;;;4911589;29;20197;-78
2021/08/22 00:50:49;;;;;;;3.47;3.27;;;18.50;99.90;;;;;;4911906;29;20306;-77
2021/08/22 00:53:15;;;;;;;4.33;3.60;;;18.50;99.90;;;;;;4913201;29;20203;-77
2021/08/22 00:55:42;;;;;;;3.50;3.20;;;18.50;99.90;;;;;;4914259;29;20676;-75
2021/08/22 00:58:10;;;;;;;3.40;3.20;;;18.50;99.90;;;;;;4911514;29;20247;-76
2021/08/22 01:00:37;;;;;;;3.60;3.30;;;18.50;99.90;;;;;;4912341;29;20740;-78
2021/08/22 01:03:11;;;;;;;3.70;3.40;;;18.50;99.90;;;;;;4909918;29;21056;-76
2021/08/22 01:06:00;;;;;;;3.73;3.43;;;18.50;99.90;;;;;;4915081;29;20690;-76
2021/08/22 01:08:31;;;;;;;3.20;2.93;;;18.70;99.90;;;;;;4906511;29;20708;-76
2021/08/22 01:11:02;;;;;;;3.03;2.83;;;18.50;99.90;;;;;;4910215;29;20661;-77
2021/08/22 01:13:33;;;;;;;3.23;2.80;;;18.50;99.90;;;;;;4908559;29;20629;-76
2021/08/22 01:16:04;;;;;;;5.60;3.50;;;18.50;99.90;;;;;;4908763;29;20802;-76
2021/08/22 01:18:31;;;;;;;3.60;3.40;;;18.50;99.90;;;;;;4926441;29;20725;-77
2021/08/22 01:21:08;;;;;;;3.17;2.87;;;18.50;99.90;;;;;;4913858;29;20971;-77
2021/08/22 01:23:37;;;;;;;3.10;2.90;;;18.50;99.90;;;;;;4916058;29;21900;-75
2021/08/22 01:26:05;;;;;;;3.50;3.20;;;18.50;99.90;;;;;;4912123;28;21001;-76
2021/08/22 01:28:30;;;;;;;3.47;3.17;;;18.50;99.90;;;;;;4912283;29;20704;-77
2021/08/22 01:31:06;;;;;;;3.10;2.90;;;18.50;99.90;;;;;;4913146;29;21139;-75
2021/08/22 01:33:32;;;;;;;3.43;3.00;;;18.50;99.90;;;;;;4914967;29;20192;-78
2021/08/22 01:36:01;;;;;;;2.90;2.70;;;18.50;99.90;;;;;;4912211;29;20639;-76
2021/08/22 01:38:27;;;;;;;3.27;2.97;;;18.40;99.90;;;;;;4914360;29;20232;-76
2021/08/22 01:40:54;;;;;;;3.43;3.13;;;18.40;99.90;;;;;;4916161;29;20691;-77
2021/08/22 01:43:23;;;;;;;3.00;2.80;;;18.40;99.90;;;;;;4912875;29;20636;-77
2021/08/22 01:45:56;;;;;;;2.60;2.47;;;18.50;99.90;;;;;;4914876;29;21213;-77
2021/08/22 01:48:26;;;;;;;3.17;2.87;;;18.40;99.90;;;;;;4914387;29;21156;-76
2021/08/22 01:50:59;;;;;;;2.90;2.70;;;18.40;99.90;;;;;;4918285;29;20664;-75
2021/08/22 01:53:25;;;;;;;3.37;3.13;;;18.40;99.90;;;;;;4912740;29;20624;-77
2021/08/22 01:55:53;;;;;;;2.90;2.70;;;18.40;99.90;;;;;;4916552;29;20725;-78
2021/08/22 01:58:21;;;;;;;2.83;2.63;;;18.40;99.90;;;;;;4910929;29;21402;-76
2021/08/22 02:00:50;;;;;;;2.73;2.53;;;18.40;99.90;;;;;;4913513;29;20794;-76
2021/08/22 02:03:30;;;;;;;3.20;3.00;;;18.40;99.90;;;;;;4915181;29;20616;-76
2021/08/22 02:06:02;;;;;;;3.13;2.80;;;18.40;99.90;;;;;;4917879;28;20663;-79
2021/08/22 02:08:38;;;;;;;2.97;2.63;;;18.40;99.90;;;;;;4926315;29;20840;-78
2021/08/22 02:11:18;;;;;;;2.80;2.60;;;18.40;99.90;;;;;;4918744;29;20670;-76
2021/08/22 02:13:48;;;;;;;2.90;2.70;;;18.50;99.90;;;;;;4915560;29;20638;-77
2021/08/22 02:16:20;;;;;;;2.70;2.53;;;18.40;99.90;;;;;;4912358;28;20679;-76
2021/08/22 02:18:49;;;;;;;2.60;2.40;;;18.30;99.90;;;;;;4917464;29;20649;-77
2021/08/22 02:21:18;;;;;;;3.17;2.90;;;18.30;99.90;;;;;;4918082;29;21289;-76
2021/08/22 02:23:43;;;;;;;2.50;2.30;;;18.30;99.90;;;;;;4915516;29;21031;-77
2021/08/22 02:26:12;;;;;;;2.87;2.67;;;18.30;99.90;;;;;;4917803;29;20775;-76
2021/08/22 02:28:37;;;;;;;2.77;2.50;;;18.30;99.90;;;;;;4918445;29;20197;-77
2021/08/22 02:31:07;;;;;;;3.30;2.90;;;18.30;99.90;;;;;;4918725;29;20664;-78
2021/08/22 02:33:35;;;;;;;2.90;2.70;;;18.40;99.90;;;;;;4921652;29;20790;-76
2021/08/22 02:36:03;;;;;;;3.20;2.53;;;18.30;99.90;;;;;;4919404;28;20693;-75
2021/08/22 02:38:28;;;;;;;2.60;2.40;;;18.30;99.90;;;;;;4915819;29;20668;-77
2021/08/22 02:40:54;;;;;;;3.67;2.80;;;18.30;99.90;;;;;;4915588;29;20644;-77
2021/08/22 02:43:22;;;;;;;2.73;2.53;;;18.30;99.90;;;;;;4918596;29;20191;-77
2021/08/22 02:45:47;;;;;;;3.10;2.90;;;18.20;99.90;;;;;;4912469;28;20235;-77
2021/08/22 02:48:15;;;;;;;2.67;2.47;;;18.20;99.90;;;;;;4920325;29;20731;-77
2021/08/22 02:50:46;;;;;;;2.30;2.20;;;18.20;99.90;;;;;;4921867;29;20324;-77
2021/08/22 02:53:11;;;;;;;3.03;2.83;;;18.20;99.90;;;;;;4922798;29;20727;-76
2021/08/22 02:55:37;;;;;;;2.70;2.50;;;18.20;99.90;;;;;;4916913;28;20739;-77
2021/08/22 02:58:07;;;;;;;2.67;2.47;;;18.20;99.90;;;;;;4920403;29;20244;-77
2021/08/22 03:00:35;;;;;;;2.73;2.53;;;18.20;99.90;;;;;;4918471;29;20222;-77
2021/08/22 03:03:04;;;;;;;2.47;2.27;;;18.20;99.90;;;;;;4925575;29;20621;-78
2021/08/22 03:05:35;;;;;;;3.73;2.30;;;18.20;99.90;;;;;;4920937;28;20667;-77
2021/08/22 03:08:00;;;;;;;3.70;2.70;;;18.20;99.90;;;;;;4922075;29;21009;-76
2021/08/22 03:10:26;;;;;;;2.43;2.23;;;18.20;99.90;;;;;;4916483;29;20671;-77
2021/08/22 03:12:52;;;;;;;2.57;2.37;;;18.20;99.90;;;;;;4917311;29;20207;-77
2021/08/22 03:15:24;;;;;;;2.50;2.30;;;18.10;99.90;;;;;;4921767;28;20323;-76
2021/08/22 03:17:52;;;;;;;3.73;2.17;;;18.10;99.90;;;;;;4920485;29;20219;-76
2021/08/22 03:20:19;;;;;;;2.60;2.40;;;18.10;99.90;;;;;;4925428;29;20759;-76
2021/08/22 03:22:45;;;;;;;2.60;2.40;;;18.10;99.90;;;;;;4920044;29;21107;-77
2021/08/22 03:25:12;;;;;;;2.67;2.47;;;18.10;99.90;;;;;;4916719;28;20659;-76
2021/08/22 03:27:40;;;;;;;2.33;2.13;;;18.10;99.90;;;;;;4918539;29;20960;-76
2021/08/22 03:30:10;;;;;;;2.30;2.17;;;18.10;99.90;;;;;;4920070;29;20683;-76
2021/08/22 03:32:38;;;;;;;2.20;2.10;;;18.10;99.90;;;;;;4916961;29;20725;-76
2021/08/22 03:35:03;;;;;;;2.70;2.50;;;18.10;99.90;;;;;;4918529;28;20756;-77
2021/08/22 03:37:29;;;;;;;2.40;2.20;;;18.10;99.90;;;;;;4920654;29;20750;-76
2021/08/22 03:39:57;;;;;;;2.70;2.40;;;18.10;99.90;;;;;;4919069;29;20239;-77
2021/08/22 03:42:22;;;;;;;2.33;2.13;;;18.10;99.90;;;;;;4920329;29;20195;-76
2021/08/22 03:44:48;;;;;;;2.27;2.17;;;18.10;99.90;;;;;;4919523;28;20635;-76
2021/08/22 03:47:13;;;;;;;2.90;2.70;;;18.10;99.90;;;;;;4914132;29;20218;-77
2021/08/22 03:49:44;;;;;;;2.30;2.10;;;18.10;99.90;;;;;;4919192;29;20319;-75
2021/08/22 03:52:09;;;;;;;2.60;2.40;;;18.10;99.90;;;;;;4918388;29;20468;-76
2021/08/22 03:54:37;;;;;;;3.60;2.23;;;18.10;99.90;;;;;;4919761;28;20710;-76
2021/08/22 03:57:05;;;;;;;3.33;2.03;;;18.10;99.90;;;;;;4920020;29;20212;-76
2021/08/22 03:59:33;;;;;;;2.37;2.23;;;18.10;99.90;;;;;;4918401;29;20653;-77
2021/08/22 04:01:58;;;;;;;2.50;2.30;;;18.10;99.90;;;;;;4918873;29;20616;-77
2021/08/22 04:04:26;;;;;;;2.43;2.23;;;18.10;99.90;;;;;;4918977;28;20687;-76
2021/08/22 04:06:57;;;;;;;2.37;2.20;;;18.10;99.90;;;;;;4915306;29;20192;-76
2021/08/22 04:09:24;;;;;;;2.20;2.10;;;18.10;99.90;;;;;;4919012;29;20712;-76
2021/08/22 04:11:54;;;;;;;2.00;1.90;;;18.10;99.90;;;;;;4916298;29;21196;-77
2021/08/22 04:14:20;;;;;;;2.10;1.90;;;18.10;99.90;;;;;;4917487;28;20707;-77
2021/08/22 04:16:53;;;;;;;2.67;2.47;;;18.00;99.90;;;;;;4920867;29;20688;-76
2021/08/22 04:19:19;;;;;;;2.50;2.30;;;18.10;99.90;;;;;;4922534;29;20281;-76
2021/08/22 04:21:44;;;;;;;2.47;2.27;;;18.10;99.90;;;;;;4922839;29;20780;-76
2021/08/22 04:24:10;;;;;;;3.03;2.60;;;18.10;99.90;;;;;;4923583;29;20196;-76
2021/08/22 04:26:41;;;;;;;3.60;2.40;;;18.10;99.90;;;;;;4912072;28;20236;-78
2021/08/22 04:29:08;;;;;;;3.10;2.37;;;18.00;99.90;;;;;;4919357;29;20209;-77
2021/08/22 04:31:34;;;;;;;1.90;1.80;;;18.10;99.90;;;;;;4918269;29;20628;-77
2021/08/22 04:34:02;;;;;;;3.00;2.70;;;18.00;99.90;;;;;;4916953;29;20628;-78
2021/08/22 04:36:31;;;;;;;3.93;2.57;;;18.00;99.90;;;;;;4917823;28;20239;-77
2021/08/22 04:38:56;;;;;;;2.37;2.10;;;18.00;99.90;;;;;;4917496;29;21511;-76
2021/08/22 04:41:22;;;;;;;2.37;2.20;;;18.00;99.90;;;;;;4918112;29;20620;-76
2021/08/22 04:43:51;;;;;;;2.00;1.90;;;18.00;99.90;;;;;;4932979;29;20181;-76
2021/08/22 04:46:20;;;;;;;2.00;1.90;;;18.00;99.90;;;;;;4916366;28;20307;-76
2021/08/22 04:48:48;;;;;;;2.13;1.80;;;18.00;99.90;;;;;;4922385;29;20718;-76
2021/08/22 04:51:14;;;;;;;2.00;1.90;;;18.00;99.90;;;;;;4917500;29;20655;-76
2021/08/22 04:53:42;;;;;;;2.07;1.97;;;18.10;99.90;;;;;;4923995;29;20923;-76
2021/08/22 04:56:08;;;;;;;3.03;2.03;;;18.00;99.90;;;;;;4918101;28;20221;-76
2021/08/22 04:58:37;;;;;;;2.33;2.13;;;18.00;99.90;;;;;;4918641;29;20651;-76
2021/08/22 05:01:02;;;;;;;2.00;1.90;;;18.00;99.90;;;;;;4918691;29;20645;-76
2021/08/22 05:03:28;;;;;;;2.23;2.03;;;18.00;99.90;;;;;;4921085;29;20607;-78
2021/08/22 05:05:53;;;;;;;2.30;2.10;;;18.00;99.90;;;;;;4923174;29;20216;-76
2021/08/22 05:08:21;;;;;;;2.10;1.90;;;18.10;99.90;;;;;;4928453;29;20263;-76
2021/08/22 05:10:48;;;;;;;2.57;2.37;;;18.10;99.90;;;;;;4920673;29;20216;-76
2021/08/22 05:13:19;;;;;;;2.37;2.07;;;18.10;99.90;;;;;;4918020;29;21012;-76
2021/08/22 05:15:45;;;;;;;2.90;2.40;;;18.10;99.90;;;;;;4919179;28;20675;-76
2021/08/22 05:18:11;;;;;;;2.57;2.10;;;18.10;99.90;;;;;;4920194;29;20654;-77
2021/08/22 05:20:36;;;;;;;2.30;2.03;;;18.10;99.90;;;;;;4921452;29;20653;-77
2021/08/22 05:23:02;;;;;;;2.83;2.30;;;18.10;99.90;;;;;;4919884;29;20322;-77
2021/08/22 05:25:27;;;;;;;2.17;2.00;;;18.10;99.90;;;;;;4917914;28;20217;-77
2021/08/22 05:27:58;;;;;;;2.43;2.10;;;18.10;99.90;;;;;;4920758;29;20211;-76
2021/08/22 05:30:25;;;;;;;2.30;2.10;;;18.20;99.90;;;;;;4917257;29;20224;-77
2021/08/22 05:32:51;;;;;;;2.93;1.80;;;18.10;99.90;;;;;;4917432;29;20749;-77
2021/08/22 05:35:17;;;;;;;1.93;1.83;;;18.20;99.90;;;;;;4922722;28;20668;-77
2021/08/22 05:37:45;;;;;;;2.77;2.10;;;18.20;99.90;;;;;;4926673;29;20327;-76
2021/08/22 05:40:15;;;;;;;2.67;2.27;;;18.20;99.90;;;;;;4920974;29;20213;-75
2021/08/22 05:42:44;;;;;;;3.43;2.10;;;18.20;99.90;;;;;;4923475;29;20627;-78
2021/08/22 05:45:10;;;;;;;2.40;2.20;;;18.20;99.90;;;;;;4919866;28;20731;-77
2021/08/22 05:47:36;;;;;;;1.90;1.80;;;18.20;99.90;;;;;;4920341;29;20722;-76
2021/08/22 05:50:04;;;;;;;2.13;2.00;;;18.20;99.90;;;;;;4921216;29;20228;-76
2021/08/22 05:52:38;;;;;;;2.30;2.20;;;18.20;99.90;;;;;;4915583;29;20701;-75
2021/08/22 05:55:08;;;;;;;1.80;1.70;;;18.20;99.90;;;;;;4921082;28;20676;-76
2021/08/22 05:57:33;;;;;;;2.30;2.10;;;18.20;99.90;;;;;;4926957;29;20654;-76
2021/08/22 06:00:07;;;;;;;2.10;2.00;;;18.20;99.90;;;;;;4924382;29;20818;-77
2021/08/22 06:02:32;;;;;;;2.33;2.23;;;18.20;99.90;;;;;;4915538;29;20219;-77
2021/08/22 06:04:58;;;;;;;2.80;2.37;;;18.20;99.90;;;;;;4904325;29;20643;-76
2021/08/22 06:07:24;;;;;;;2.23;2.10;;;18.20;99.90;;;;;;4911814;29;21065;-76
2021/08/22 06:09:50;;;;;;;2.23;1.80;;;18.20;99.90;;;;;;4919419;29;20724;-76
2021/08/22 06:12:17;;;;;;;2.10;2.00;;;18.20;99.90;;;;;;4932060;28;20535;-76
2021/08/22 06:14:43;;;;;;;1.90;1.80;;;18.20;99.90;;;;;;4920031;28;20650;-78
2021/08/22 06:17:11;;;;;;;1.93;1.73;;;18.40;99.90;;;;;;4921376;29;20651;-76
2021/08/22 06:19:36;;;;;;;2.23;2.00;;;18.20;99.90;;;;;;4922466;29;20276;-76
2021/08/22 06:22:04;;;;;;;2.47;2.10;;;18.20;99.90;;;;;;4913374;29;20617;-76
2021/08/22 06:24:30;;;;;;;2.20;2.10;;;18.20;99.90;;;;;;4917780;28;20557;-77
2021/08/22 06:26:56;;;;;;;2.63;2.43;;;18.10;99.90;;;;;;4915628;29;21029;-76
2021/08/22 06:29:23;;;;;;;2.20;2.07;;;18.20;99.90;;;;;;4916955;29;20681;-76
2021/08/22 06:31:50;;;;;;;2.40;2.20;;;18.20;99.90;;;;;;4917146;29;20247;-77
2021/08/22 06:34:16;;;;;;;2.40;2.20;;;18.10;99.90;;;;;;4918401;29;20605;-76
2021/08/22 06:36:42;;;;;;;1.90;1.80;;;18.10;99.90;;;;;;4921744;28;20715;-77
2021/08/22 06:39:08;;;;;;;3.43;2.17;;;18.10;99.90;;;;;;4917388;29;20566;-76
2021/08/22 06:41:34;;;;;;;2.10;2.00;;;18.10;99.90;;;;;;4918449;29;20189;-77
2021/08/22 06:44:00;;;;;;;2.27;2.17;;;18.10;99.90;;;;;;4919139;29;20616;-77
2021/08/22 06:46:26;;;;;;;4.00;2.30;;;18.10;99.90;;;;;;4923998;28;20224;-77
2021/08/22 06:48:51;;;;;;;2.87;2.40;;;18.20;99.90;;;;;;4919219;29;20621;-76
2021/08/22 06:51:17;;;;;;;2.30;1.90;;;18.20;99.90;;;;;;4917121;29;20215;-76
2021/08/22 06:53:42;;;;;;;2.53;2.20;;;18.30;99.90;;;;;;4915010;28;20208;-76
2021/08/22 06:56:08;;;;;;;2.80;2.23;;;18.30;99.90;;;;;;4919059;28;20225;-76
2021/08/22 06:58:33;;;;;;;2.67;2.43;;;18.30;99.90;;;;;;4914598;29;20331;-77
2021/08/22 07:00:59;;;;;;;1.90;1.80;;;18.40;99.90;;;;;;4914501;29;20899;-79
2021/08/22 07:03:24;;;;;;;2.40;2.20;;;18.40;99.90;;;;;;4919377;29;20438;-77
2021/08/22 07:05:50;;;;;;;2.13;1.97;;;18.40;99.90;;;;;;4914531;29;20231;-76
2021/08/22 07:08:16;;;;;;;2.53;2.07;;;18.50;99.90;;;;;;4915295;29;20218;-77
2021/08/22 07:10:41;;;;;;;2.60;2.40;;;18.50;99.90;;;;;;4909730;29;20223;-77
2021/08/22 07:13:07;;;;;;;2.20;2.10;;;18.50;99.90;;;;;;4916386;29;20255;-75
2021/08/22 07:15:34;;;;;;;1.83;1.73;;;18.70;99.90;;;;;;4910227;29;20392;-76
2021/08/22 07:18:00;;;;;;;1.97;1.87;;;18.50;99.90;;;;;;4910721;29;20726;-76
2021/08/22 07:20:25;;;;;;;2.30;2.10;;;18.60;99.90;;;;;;4910845;29;20706;-77
2021/08/22 07:22:51;;;;;;;2.60;2.30;;;18.60;99.90;;;;;;4912650;29;20631;-76
2021/08/22 07:25:17;;;;;;;2.30;2.10;;;18.60;99.90;;;;;;4917659;29;20225;-76
2021/08/22 07:27:45;;;;;;;2.33;1.90;;;18.60;99.90;;;;;;4914432;29;20228;-77
2021/08/22 07:30:11;;;;;;;2.00;1.90;;;18.60;99.90;;;;;;4917963;29;20651;-75
2021/08/22 07:32:37;;;;;;;2.03;1.83;;;18.60;99.90;;;;;;4915032;29;21001;-76
2021/08/22 07:35:03;;;;;;;2.67;2.00;;;18.60;99.90;;;;;;4908888;29;20644;-76
2021/08/22 07:37:28;;;;;;;2.90;2.23;;;18.60;99.90;;;;;;4913066;29;20212;-75
2021/08/22 07:39:54;;;;;;;2.50;1.80;;;18.60;99.90;;;;;;4913193;29;20222;-76
2021/08/22 07:42:19;;;;;;;2.40;2.17;;;18.60;99.90;;;;;;4914116;29;21439;-76
2021/08/22 07:44:45;;;;;;;2.17;2.03;;;18.70;99.90;;;;;;4912130;28;20777;-75
2021/08/22 07:47:10;;;;;;;2.50;2.33;;;18.80;99.90;;;;;;4915441;29;20199;-76
2021/08/22 07:49:36;;;;;;;2.33;2.20;;;18.80;99.90;;;;;;4930222;28;20734;-78
2021/08/22 07:52:01;;;;;;;2.50;2.30;;;18.80;99.90;;;;;;4918617;29;20201;-78
2021/08/22 07:54:27;;;;;;;2.80;1.70;;;18.90;99.90;;;;;;4916772;28;20234;-78
2021/08/22 07:56:52;;;;;;;1.70;1.60;;;18.90;99.90;;;;;;4927357;28;20192;-76
2021/08/22 07:59:18;;;;;;;2.33;2.13;;;18.90;99.90;;;;;;4912390;29;20299;-76
2021/08/22 08:01:43;;;;;;;3.10;2.20;;;18.90;99.90;;;;;;4917484;29;20193;-75
2021/08/22 08:04:09;;;;;;;3.70;2.40;;;18.90;99.90;;;;;;4912356;29;20176;-73
2021/08/22 08:06:34;;;;;;;3.00;2.80;;;19.00;99.90;;;;;;4911690;28;20252;-72
2021/08/22 08:09:00;;;;;;;2.70;2.50;;;19.00;99.90;;;;;;4917807;29;20672;-76
2021/08/22 08:11:26;;;;;;;2.73;2.23;;;19.10;99.90;;;;;;4917559;29;20188;-73
2021/08/22 08:13:52;;;;;;;2.83;2.27;;;19.10;99.90;;;;;;4917100;29;20738;-73
2021/08/22 08:16:20;;;;;;;2.90;2.60;;;19.20;99.90;;;;;;4914803;29;20253;-73
2021/08/22 08:18:46;;;;;;;2.70;2.50;;;19.30;99.90;;;;;;4918020;29;20298;-75
2021/08/22 08:21:12;;;;;;;2.30;2.20;;;19.30;99.90;;;;;;4919133;29;20679;-74
2021/08/22 08:23:37;;;;;;;2.33;2.13;;;19.30;99.90;;;;;;4916822;29;20188;-73
2021/08/22 08:26:05;;;;;;;2.17;2.03;;;19.40;99.90;;;;;;4911995;28;20224;-73
2021/08/22 08:28:31;;;;;;;2.17;1.97;;;19.40;99.90;;;;;;4919942;29;20546;-73
2021/08/22 08:30:57;;;;;;;2.43;2.23;;;19.40;99.90;;;;;;4918773;29;20652;-73
2021/08/22 08:33:25;;;;;;;2.17;2.00;;;19.40;99.90;;;;;;4913595;29;21611;-72
2021/08/22 08:35:50;;;;;;;2.10;2.00;;;19.50;99.90;;;;;;4914406;28;24145;-74
2021/08/22 08:38:20;;;;;;;2.13;1.93;;;19.50;99.90;;;;;;4906960;29;20665;-75
2021/08/22 08:40:46;;;;;;;3.03;2.83;;;19.60;99.90;;;;;;4919945;29;20243;-73
2021/08/22 08:43:13;;;;;;;2.60;2.40;;;19.50;99.90;;;;;;4911133;29;20632;-76
2021/08/22 08:46:14;;;;;;;2.10;1.90;;;19.60;99.90;;;;;;4910664;28;20244;-75
2021/08/22 08:49:05;;;;;;;2.60;2.40;;;19.60;99.90;;;;;;4914255;29;20644;-73
2021/08/22 08:51:46;;;;;;;2.00;1.90;;;19.60;99.90;;;;;;4911920;29;20644;-76
2021/08/22 08:54:14;;;;;;;2.47;2.27;;;19.60;99.90;;;;;;4917465;29;20624;-75
2021/08/22 08:56:49;;;;;;;2.37;1.87;;;19.60;99.90;;;;;;4911970;28;20652;-73
2021/08/22 08:59:14;;;;;;;2.50;2.30;;;19.60;99.90;;;;;;4926661;29;21084;-73
2021/08/22 09:01:41;;;;;;;2.00;1.90;;;19.60;99.90;;;;;;4914399;29;20703;-75
2021/08/22 09:04:26;;;;;;;3.90;1.87;;;19.60;99.90;;;;;;4907428;29;20207;-75
2021/08/22 09:07:16;;;;;;;2.93;2.33;;;19.60;99.90;;;;;;4912731;29;23808;-74
2021/08/22 09:10:16;;;;;;;3.07;2.07;;;19.70;99.90;;;;;;4913785;29;20722;-74
2021/08/22 09:13:19;;;;;;;2.17;1.97;;;19.70;99.90;;;;;;4920937;29;20640;-77
2021/08/22 09:16:00;;;;;;;2.83;2.30;;;19.80;99.90;;;;;;4912798;28;20632;-76
2021/08/22 09:19:06;;;;;;;3.17;2.30;;;19.80;99.90;;;;;;4919360;29;20742;-74
2021/08/22 09:22:09;;;;;;;2.27;2.10;;;19.90;99.90;;;;;;4913176;29;20663;-74
2021/08/22 09:25:01;;;;;;;4.30;2.60;;;19.90;99.90;;;;;;4918743;28;20683;-73
2021/08/22 09:28:00;;;;;;;2.10;2.00;;;19.80;99.90;;;;;;4913326;29;21202;-73
2021/08/22 09:30:31;;;;;;;1.80;1.70;;;19.90;99.90;;;;;;4910358;29;20648;-74
2021/08/22 09:33:35;;;;;;;2.50;2.30;;;19.90;99.90;;;;;;4914386;29;20723;-74
2021/08/22 09:36:38;;;;;;;4.77;2.10;;;19.90;99.90;;;;;;4911935;28;20635;-75
2021/08/22 09:39:28;;;;;;;2.30;2.10;;;20.00;99.90;;;;;;4917376;29;20654;-74
2021/08/22 09:42:22;;;;;;;2.10;2.00;;;20.00;99.90;;;;;;4910508;29;20627;-74
2021/08/22 09:45:25;;;;;;;3.07;2.77;;;20.00;99.90;;;;;;4911214;28;21231;-74
2021/08/22 09:48:28;;;;;;;2.40;2.20;;;20.00;99.90;;;;;;4919117;29;20635;-75
2021/08/22 09:51:34;;;;;;;2.50;2.30;;;20.00;99.90;;;;;;4911587;29;21360;-75
2021/08/22 09:54:38;;;;;;;2.40;2.20;;;19.90;99.90;;;;;;4915492;29;20682;-75
2021/08/22 09:57:25;;;;;;;3.00;2.00;;;19.90;99.90;;;;;;4916399;29;20662;-75
2021/08/22 10:00:00;;;;;;;2.40;2.03;;;19.90;99.90;;;;;;4915109;29;20706;-73
2021/08/22 10:02:31;;;;;;;2.50;2.30;;;19.90;99.90;;;;;;4918120;29;20647;-74
2021/08/22 10:05:24;;;;;;;2.60;2.40;;;19.80;99.90;;;;;;4922642;28;20746;-74
2021/08/22 10:08:11;;;;;;;2.70;2.50;;;19.70;99.90;;;;;;4921619;29;20622;-74
2021/08/22 10:10:48;;;;;;;2.30;2.10;;;19.70;99.90;;;;;;4920020;29;20715;-75
2021/08/22 10:13:14;;;;;;;2.17;2.07;;;19.60;99.90;;;;;;4916376;29;21225;-74
2021/08/22 10:15:44;;;;;;;2.50;2.30;;;19.60;99.90;;;;;;4915004;28;20651;-77
2021/08/22 10:18:10;;;;;;;2.73;2.53;;;19.50;99.90;;;;;;4922346;29;20208;-74
2021/08/22 10:20:42;;;;;;;2.90;2.57;;;19.50;99.90;;;;;;4914979;29;20648;-74
2021/08/22 10:23:35;;;;;;;2.73;2.30;;;19.50;99.90;;;;;;4918149;29;20188;-75
2021/08/22 10:26:00;;;;;;;2.90;2.60;;;19.40;99.90;;;;;;4918298;28;20729;-75
2021/08/22 10:28:44;;;;;;;2.97;2.67;;;19.40;99.90;;;;;;4920542;29;21191;-75
2021/08/22 10:31:12;;;;;;;3.40;3.07;;;19.30;99.90;;;;;;4924294;29;20208;-75
2021/08/22 10:34:12;;;;;;;3.77;3.43;;;19.30;99.90;;;;;;4905928;29;20611;-73
2021/08/22 10:36:39;;;;;;;3.70;3.40;;;19.20;99.90;;;;;;4913433;29;20675;-74
2021/08/22 10:39:25;;;;;;;3.70;2.90;;;19.10;99.90;;;;;;4916547;29;20648;-75
2021/08/22 10:41:53;;;;;;;3.07;2.80;;;19.00;99.90;;;;;;4913098;29;20772;-74
2021/08/22 10:44:34;;;;;;;3.00;2.80;;;19.00;99.90;;;;;;4917697;28;20723;-75
2021/08/22 10:47:00;;;;;;;3.37;2.80;;;19.00;99.90;;;;;;4916008;29;20727;-75
2021/08/22 10:49:51;;;;;;;3.57;2.87;;;18.90;99.90;;;;;;4921067;29;20647;-75
2021/08/22 10:52:45;;;;;;;2.93;2.73;;;18.90;99.90;;;;;;4913795;29;21166;-75
2021/08/22 10:55:14;;;;;;;2.93;2.73;;;18.90;99.90;;;;;;4915920;28;20636;-76
2021/08/22 10:57:45;;;;;;;3.53;3.00;;;18.80;99.90;;;;;;4920001;29;20656;-75
2021/08/22 11:00:26;;;;;;;3.40;3.10;;;18.90;99.90;;;;;;4917826;29;21229;-75
2021/08/22 11:02:54;;;;;;;3.93;3.53;;;18.80;99.90;;;;;;4907122;29;20643;-75
2021/08/22 11:05:21;;;;;;;3.60;3.40;;;18.80;99.90;;;;;;4913992;28;20712;-75
2021/08/22 11:07:51;;;;;;;3.60;3.30;;;18.80;99.90;;;;;;4917907;29;20616;-74
2021/08/22 11:10:18;;;;;;;4.13;3.20;;;18.80;99.90;;;;;;4920188;29;20663;-74
2021/08/22 11:12:43;;;;;;;3.00;2.80;;;18.80;99.90;;;;;;4911874;28;20729;-74
2021/08/22 11:15:24;;;;;;;3.20;3.00;;;18.80;99.90;;;;;;4915781;28;20990;-75
2021/08/22 11:17:55;;;;;;;3.83;3.53;;;18.80;99.90;;;;;;4913377;29;20267;-75
2021/08/22 11:20:23;;;;;;;3.43;3.13;;;18.80;99.90;;;;;;4912593;29;20758;-75
2021/08/22 11:22:55;;;;;;;2.97;2.77;;;18.80;99.90;;;;;;4929904;28;20620;-74
2021/08/22 11:25:26;;;;;;;3.27;3.07;;;18.80;99.90;;;;;;4914851;28;20682;-74
2021/08/22 11:28:03;;;;;;;3.13;2.93;;;18.80;99.90;;;;;;4916244;29;20974;-74
2021/08/22 11:30:28;;;;;;;3.53;3.23;;;18.80;99.90;;;;;;4913228;29;20663;-74
2021/08/22 11:32:54;;;;;;;3.27;3.03;;;18.80;99.90;;;;;;4916602;29;21263;-74
2021/08/22 11:35:24;;;;;;;3.03;2.83;;;18.80;99.90;;;;;;4911424;28;20224;-74
2021/08/22 11:37:51;;;;;;;4.93;4.53;;;18.70;99.90;;;;;;4900913;29;20615;-74
2021/08/22 11:40:19;;;;;;;7.40;6.80;;;18.80;99.90;;;;;;4916967;29;20655;-74
2021/08/22 11:42:46;;;;;;;5.17;4.17;;;18.80;99.90;;;;;;4915000;29;21266;-75
2021/08/22 11:45:14;;;;;;;4.80;3.53;;;18.70;99.90;;;;;;4911232;28;20628;-74
2021/08/22 11:47:40;;;;;;;3.70;3.40;;;18.70;99.90;;;;;;4916518;29;20697;-75
2021/08/22 11:50:08;;;;;;;4.20;3.90;;;18.70;99.90;;;;;;4915701;29;21132;-78
2021/08/22 11:52:36;;;;;;;4.50;3.90;;;18.60;99.90;;;;;;4912325;29;20196;-77
2021/08/22 11:55:07;;;;;;;3.90;3.50;;;18.70;99.90;;;;;;4917947;28;21262;-76
2021/08/22 11:57:33;;;;;;;3.77;3.43;;;18.70;99.90;;;;;;4915336;29;21240;-75
2021/08/22 12:00:00;;;;;;;3.30;3.10;;;18.70;99.90;;;;;;4911830;29;20665;-74
2021/08/22 12:02:28;;;;;;;3.70;3.40;;;18.70;99.90;;;;;;4908775;29;20718;-74
2021/08/22 12:05:16;;;;;;;3.83;3.40;;;18.70;99.90;;;;;;4918071;28;21597;-76
2021/08/22 12:07:43;;;;;;;3.83;3.53;;;18.70;99.90;;;;;;4915145;29;20621;-73
2021/08/22 12:10:19;;;;;;;3.80;3.50;;;18.70;99.90;;;;;;4913258;29;21998;-73
2021/08/22 12:12:44;;;;;;;4.40;3.97;;;18.80;99.90;;;;;;4911693;29;21208;-74
2021/08/22 12:15:10;;;;;;;3.93;3.63;;;18.70;99.90;;;;;;4909977;28;20704;-74
2021/08/22 12:17:38;;;;;;;3.57;3.37;;;18.70;99.90;;;;;;4910000;29;20212;-74
2021/08/22 12:20:15;;;;;;;4.07;3.77;;;18.70;99.90;;;;;;4911491;29;20227;-74
2021/08/22 12:22:41;;;;;;;3.93;3.63;;;18.70;99.90;;;;;;4912567;29;20640;-74
2021/08/22 12:25:06;;;;;;;3.83;3.53;;;18.80;99.90;;;;;;4911709;28;20637;-74
2021/08/22 12:27:37;;;;;;;3.50;3.20;;;18.80;99.90;;;;;;4914180;29;20191;-74
2021/08/22 12:30:11;;;;;;;4.27;3.60;;;18.70;99.90;;;;;;4956795;23;20231;-82
2021/08/22 12:32:37;;;;;;;3.40;3.20;;;18.70;99.90;;;;;;4940810;28;20721;-82
2021/08/22 12:35:07;;;;;;;4.30;3.90;;;18.70;99.90;;;;;;4947418;28;20750;-82
2021/08/22 12:37:33;;;;;;;4.17;3.87;;;18.70;99.90;;;;;;4938459;28;20650;-82
2021/08/22 12:40:05;;;;;;;3.67;3.40;;;18.60;99.90;;;;;;4958254;28;20651;-81
2021/08/22 12:42:31;;;;;;;4.13;3.83;;;18.60;99.90;;;;;;4955226;28;20627;-83
2021/08/22 12:44:57;;;;;;;3.90;3.60;;;18.60;99.90;;;;;;4940779;28;20654;-83
2021/08/22 12:47:23;;;;;;;4.43;4.00;;;18.50;99.90;;;;;;4944109;28;20686;-84
2021/08/22 12:49:49;;;;;;;3.97;3.67;;;18.80;99.90;;;;;;4946165;28;20643;-81
2021/08/22 12:52:16;;;;;;;4.30;3.90;;;18.60;99.90;;;;;;4942458;28;20631;-82
2021/08/22 12:54:42;;;;;;;4.57;4.17;;;18.60;99.90;;;;;;4949864;28;20229;-82
2021/08/22 12:57:08;;;;;;;4.07;3.77;;;18.80;99.90;;;;;;4956095;28;20603;-82
2021/08/22 12:59:34;;;;;;;4.20;3.90;;;18.60;99.90;;;;;;4963757;28;20764;-84
2021/08/22 13:01:59;;;;;;;4.40;4.00;;;18.60;99.90;;;;;;4956998;28;20700;-83
2021/08/22 13:04:28;;;;;;;4.30;3.90;;;18.50;99.90;;;;;;4944554;28;20267;-83